sensor_id;sensor_type;location;lat;lon;timestamp;P1;durP1;ratioP1;P2;durP2;ratioP2
39956;SDS011;48483;44.640;7.494;2023-03-20T00:00:09;15.75;;;11.10;;
39956;SDS011;48483;44.640;7.494;2023-03-20T00:02:42;13.68;;;10.77;;
39956;SDS011;48483;44.640;7.494;2023-03-20T00:05:17;12.82;;;10.30;;
39956;SDS011;48483;44.640;7.494;2023-03-20T00:07:46;15.93;;;10.98;;
39956;SDS011;48483;44.640;7.494;2023-03-20T00:10:14;16.17;;;11.00;;
39956;SDS011;48483;44.640;7.494;2023-03-20T00:12:46;13.75;;;11.43;;
39956;SDS011;48483;44.640;7.494;2023-03-20T00:15:29;11.95;;;10.65;;
39956;SDS011;48483;44.640;7.494;2023-03-20T00:17:57;13.52;;;10.63;;
39956;SDS011;48483;44.640;7.494;2023-03-20T00:20:25;12.55;;;10.57;;
39956;SDS011;48483;44.640;7.494;2023-03-20T00:22:52;13.02;;;11.63;;
39956;SDS011;48483;44.640;7.494;2023-03-20T00:25:20;14.65;;;11.15;;
39956;SDS011;48483;44.640;7.494;2023-03-20T00:27:49;16.45;;;11.38;;
39956;SDS011;48483;44.640;7.494;2023-03-20T00:30:19;13.95;;;11.05;;
39956;SDS011;48483;44.640;7.494;2023-03-20T00:32:53;17.33;;;11.43;;
39956;SDS011;48483;44.640;7.494;2023-03-20T00:35:23;14.00;;;11.65;;
39956;SDS011;48483;44.640;7.494;2023-03-20T00:37:55;12.93;;;11.13;;
39956;SDS011;48483;44.640;7.494;2023-03-20T00:40:24;13.60;;;11.85;;
39956;SDS011;48483;44.640;7.494;2023-03-20T00:42:57;13.95;;;11.00;;
39956;SDS011;48483;44.640;7.494;2023-03-20T00:45:25;13.50;;;12.10;;
39956;SDS011;48483;44.640;7.494;2023-03-20T00:47:53;17.27;;;11.13;;
39956;SDS011;48483;44.640;7.494;2023-03-20T00:50:23;15.85;;;13.05;;
39956;SDS011;48483;44.640;7.494;2023-03-20T00:52:52;15.88;;;11.45;;
39956;SDS011;48483;44.640;7.494;2023-03-20T00:55:19;14.23;;;12.75;;
39956;SDS011;48483;44.640;7.494;2023-03-20T00:57:50;14.35;;;12.00;;
39956;SDS011;48483;44.640;7.494;2023-03-20T01:00:23;12.23;;;10.93;;
39956;SDS011;48483;44.640;7.494;2023-03-20T01:02:55;13.82;;;12.32;;
39956;SDS011;48483;44.640;7.494;2023-03-20T01:05:24;14.50;;;12.15;;
39956;SDS011;48483;44.640;7.494;2023-03-20T01:07:54;16.00;;;12.32;;
39956;SDS011;48483;44.640;7.494;2023-03-20T01:10:22;13.93;;;11.60;;
39956;SDS011;48483;44.640;7.494;2023-03-20T01:12:53;19.67;;;12.10;;
39956;SDS011;48483;44.640;7.494;2023-03-20T01:15:24;14.57;;;12.07;;
39956;SDS011;48483;44.640;7.494;2023-03-20T01:17:58;15.13;;;11.85;;
39956;SDS011;48483;44.640;7.494;2023-03-20T01:20:26;16.50;;;12.93;;
39956;SDS011;48483;44.640;7.494;2023-03-20T01:22:55;14.25;;;12.75;;
39956;SDS011;48483;44.640;7.494;2023-03-20T01:25:22;18.95;;;12.18;;
39956;SDS011;48483;44.640;7.494;2023-03-20T01:28:12;13.35;;;11.95;;
39956;SDS011;48483;44.640;7.494;2023-03-20T01:30:41;15.45;;;11.60;;
39956;SDS011;48483;44.640;7.494;2023-03-20T01:33:12;17.58;;;11.98;;
39956;SDS011;48483;44.640;7.494;2023-03-20T01:35:40;15.00;;;11.75;;
39956;SDS011;48483;44.640;7.494;2023-03-20T01:38:13;15.00;;;12.15;;
39956;SDS011;48483;44.640;7.494;2023-03-20T01:40:46;14.65;;;11.05;;
39956;SDS011;48483;44.640;7.494;2023-03-20T01:43:20;14.43;;;12.13;;
39956;SDS011;48483;44.640;7.494;2023-03-20T01:45:53;16.87;;;12.30;;
39956;SDS011;48483;44.640;7.494;2023-03-20T01:48:29;17.10;;;13.48;;
39956;SDS011;48483;44.640;7.494;2023-03-20T01:51:02;15.27;;;11.85;;
39956;SDS011;48483;44.640;7.494;2023-03-20T01:53:31;14.23;;;12.35;;
39956;SDS011;48483;44.640;7.494;2023-03-20T01:58:37;16.45;;;11.75;;
39956;SDS011;48483;44.640;7.494;2023-03-20T02:01:08;13.88;;;11.85;;
39956;SDS011;48483;44.640;7.494;2023-03-20T02:03:38;16.58;;;13.98;;
39956;SDS011;48483;44.640;7.494;2023-03-20T02:06:15;16.95;;;11.98;;
39956;SDS011;48483;44.640;7.494;2023-03-20T02:09:01;15.95;;;12.77;;
39956;SDS011;48483;44.640;7.494;2023-03-20T02:11:34;17.23;;;13.48;;
39956;SDS011;48483;44.640;7.494;2023-03-20T02:14:03;17.95;;;12.98;;
39956;SDS011;48483;44.640;7.494;2023-03-20T02:16:39;16.23;;;13.30;;
39956;SDS011;48483;44.640;7.494;2023-03-20T02:19:16;16.65;;;12.25;;
39956;SDS011;48483;44.640;7.494;2023-03-20T02:25:17;13.93;;;12.27;;
39956;SDS011;48483;44.640;7.494;2023-03-20T02:28:09;13.63;;;11.35;;
39956;SDS011;48483;44.640;7.494;2023-03-20T02:31:04;17.48;;;12.68;;
39956;SDS011;48483;44.640;7.494;2023-03-20T02:40:01;15.18;;;12.07;;
39956;SDS011;48483;44.640;7.494;2023-03-20T02:42:37;14.73;;;12.07;;
39956;SDS011;48483;44.640;7.494;2023-03-20T02:45:11;17.65;;;13.27;;
39956;SDS011;48483;44.640;7.494;2023-03-20T02:47:46;14.88;;;12.38;;
39956;SDS011;48483;44.640;7.494;2023-03-20T02:50:20;17.40;;;12.52;;
39956;SDS011;48483;44.640;7.494;2023-03-20T02:53:00;17.38;;;13.23;;
39956;SDS011;48483;44.640;7.494;2023-03-20T02:55:38;14.77;;;12.13;;
39956;SDS011;48483;44.640;7.494;2023-03-20T02:58:11;18.80;;;13.65;;
39956;SDS011;48483;44.640;7.494;2023-03-20T03:00:43;15.63;;;13.43;;
39956;SDS011;48483;44.640;7.494;2023-03-20T03:03:17;14.38;;;12.63;;
39956;SDS011;48483;44.640;7.494;2023-03-20T03:05:48;16.90;;;13.93;;
39956;SDS011;48483;44.640;7.494;2023-03-20T03:08:19;17.27;;;13.07;;
39956;SDS011;48483;44.640;7.494;2023-03-20T03:10:49;17.52;;;12.95;;
39956;SDS011;48483;44.640;7.494;2023-03-20T03:13:22;16.17;;;13.02;;
39956;SDS011;48483;44.640;7.494;2023-03-20T03:15:54;16.45;;;13.48;;
39956;SDS011;48483;44.640;7.494;2023-03-20T03:18:28;17.08;;;13.13;;
39956;SDS011;48483;44.640;7.494;2023-03-20T03:20:58;15.95;;;13.40;;
39956;SDS011;48483;44.640;7.494;2023-03-20T03:23:30;18.70;;;13.60;;
39956;SDS011;48483;44.640;7.494;2023-03-20T03:26:00;15.90;;;13.30;;
39956;SDS011;48483;44.640;7.494;2023-03-20T03:28:30;15.63;;;11.98;;
39956;SDS011;48483;44.640;7.494;2023-03-20T03:31:02;15.70;;;12.52;;
39956;SDS011;48483;44.640;7.494;2023-03-20T03:33:32;15.17;;;13.40;;
39956;SDS011;48483;44.640;7.494;2023-03-20T03:36:01;16.08;;;12.85;;
39956;SDS011;48483;44.640;7.494;2023-03-20T03:38:36;15.38;;;13.73;;
39956;SDS011;48483;44.640;7.494;2023-03-20T03:41:19;15.77;;;12.45;;
39956;SDS011;48483;44.640;7.494;2023-03-20T03:43:52;18.73;;;13.45;;
39956;SDS011;48483;44.640;7.494;2023-03-20T03:46:28;14.95;;;13.27;;
39956;SDS011;48483;44.640;7.494;2023-03-20T03:49:03;14.52;;;12.45;;
39956;SDS011;48483;44.640;7.494;2023-03-20T03:51:32;16.48;;;12.82;;
39956;SDS011;48483;44.640;7.494;2023-03-20T03:54:06;14.75;;;13.27;;
39956;SDS011;48483;44.640;7.494;2023-03-20T03:56:36;13.80;;;11.93;;
39956;SDS011;48483;44.640;7.494;2023-03-20T03:59:07;14.50;;;12.85;;
39956;SDS011;48483;44.640;7.494;2023-03-20T04:01:38;14.65;;;12.35;;
39956;SDS011;48483;44.640;7.494;2023-03-20T04:04:09;17.13;;;12.18;;
39956;SDS011;48483;44.640;7.494;2023-03-20T04:06:40;16.48;;;11.57;;
39956;SDS011;48483;44.640;7.494;2023-03-20T04:09:09;16.85;;;13.38;;
39956;SDS011;48483;44.640;7.494;2023-03-20T04:11:35;16.67;;;12.55;;
39956;SDS011;48483;44.640;7.494;2023-03-20T04:14:02;13.52;;;11.50;;
39956;SDS011;48483;44.640;7.494;2023-03-20T04:16:30;14.05;;;12.25;;
39956;SDS011;48483;44.640;7.494;2023-03-20T04:18:57;15.45;;;12.50;;
39956;SDS011;48483;44.640;7.494;2023-03-20T04:21:24;14.88;;;12.00;;
39956;SDS011;48483;44.640;7.494;2023-03-20T04:23:51;16.40;;;12.18;;
39956;SDS011;48483;44.640;7.494;2023-03-20T04:26:21;15.55;;;12.10;;
39956;SDS011;48483;44.640;7.494;2023-03-20T04:28:49;15.40;;;12.57;;
39956;SDS011;48483;44.640;7.494;2023-03-20T04:31:36;16.02;;;13.18;;
39956;SDS011;48483;44.640;7.494;2023-03-20T04:34:15;14.13;;;12.55;;
39956;SDS011;48483;44.640;7.494;2023-03-20T04:36:58;15.90;;;12.82;;
39956;SDS011;48483;44.640;7.494;2023-03-20T04:39:35;18.75;;;13.32;;
39956;SDS011;48483;44.640;7.494;2023-03-20T04:42:04;15.90;;;12.98;;
39956;SDS011;48483;44.640;7.494;2023-03-20T04:44:31;18.23;;;13.60;;
39956;SDS011;48483;44.640;7.494;2023-03-20T04:46:58;17.30;;;13.60;;
39956;SDS011;48483;44.640;7.494;2023-03-20T04:49:25;19.77;;;14.57;;
39956;SDS011;48483;44.640;7.494;2023-03-20T04:51:52;17.52;;;13.07;;
39956;SDS011;48483;44.640;7.494;2023-03-20T04:54:31;15.65;;;12.73;;
39956;SDS011;48483;44.640;7.494;2023-03-20T04:56:58;14.55;;;12.95;;
39956;SDS011;48483;44.640;7.494;2023-03-20T04:59:26;16.67;;;13.15;;
39956;SDS011;48483;44.640;7.494;2023-03-20T05:01:53;19.08;;;13.38;;
39956;SDS011;48483;44.640;7.494;2023-03-20T05:04:21;16.63;;;14.38;;
39956;SDS011;48483;44.640;7.494;2023-03-20T05:06:48;16.92;;;14.60;;
39956;SDS011;48483;44.640;7.494;2023-03-20T05:09:18;16.52;;;13.63;;
39956;SDS011;48483;44.640;7.494;2023-03-20T05:11:46;16.73;;;14.30;;
39956;SDS011;48483;44.640;7.494;2023-03-20T05:14:34;17.45;;;12.50;;
39956;SDS011;48483;44.640;7.494;2023-03-20T05:17:20;17.10;;;13.63;;
39956;SDS011;48483;44.640;7.494;2023-03-20T05:20:10;17.23;;;13.27;;
39956;SDS011;48483;44.640;7.494;2023-03-20T05:23:01;19.20;;;14.30;;
39956;SDS011;48483;44.640;7.494;2023-03-20T05:25:48;18.02;;;13.23;;
39956;SDS011;48483;44.640;7.494;2023-03-20T05:28:41;16.23;;;14.18;;
39956;SDS011;48483;44.640;7.494;2023-03-20T05:31:25;17.85;;;14.70;;
39956;SDS011;48483;44.640;7.494;2023-03-20T05:34:14;17.10;;;14.35;;
39956;SDS011;48483;44.640;7.494;2023-03-20T05:37:01;18.67;;;15.15;;
39956;SDS011;48483;44.640;7.494;2023-03-20T05:39:40;17.67;;;14.98;;
39956;SDS011;48483;44.640;7.494;2023-03-20T05:42:31;16.85;;;14.55;;
39956;SDS011;48483;44.640;7.494;2023-03-20T05:45:16;20.40;;;15.00;;
39956;SDS011;48483;44.640;7.494;2023-03-20T05:47:44;16.20;;;14.40;;
39956;SDS011;48483;44.640;7.494;2023-03-20T05:50:25;16.20;;;14.43;;
39956;SDS011;48483;44.640;7.494;2023-03-20T05:53:15;17.13;;;13.27;;
39956;SDS011;48483;44.640;7.494;2023-03-20T05:56:00;15.48;;;13.88;;
39956;SDS011;48483;44.640;7.494;2023-03-20T05:58:38;18.77;;;15.75;;
39956;SDS011;48483;44.640;7.494;2023-03-20T06:01:33;17.23;;;14.35;;
39956;SDS011;48483;44.640;7.494;2023-03-20T06:04:24;20.40;;;14.88;;
39956;SDS011;48483;44.640;7.494;2023-03-20T06:07:06;18.88;;;15.57;;
39956;SDS011;48483;44.640;7.494;2023-03-20T06:09:34;22.90;;;16.33;;
39956;SDS011;48483;44.640;7.494;2023-03-20T06:12:05;20.17;;;16.88;;
39956;SDS011;48483;44.640;7.494;2023-03-20T06:14:32;20.98;;;17.10;;
39956;SDS011;48483;44.640;7.494;2023-03-20T06:17:03;21.05;;;18.73;;
39956;SDS011;48483;44.640;7.494;2023-03-20T06:19:31;19.45;;;17.35;;
39956;SDS011;48483;44.640;7.494;2023-03-20T06:21:58;26.15;;;19.17;;
39956;SDS011;48483;44.640;7.494;2023-03-20T06:24:25;25.63;;;19.08;;
39956;SDS011;48483;44.640;7.494;2023-03-20T06:26:53;21.40;;;19.10;;
39956;SDS011;48483;44.640;7.494;2023-03-20T06:29:19;19.00;;;16.92;;
39956;SDS011;48483;44.640;7.494;2023-03-20T06:31:49;20.50;;;17.27;;
39956;SDS011;48483;44.640;7.494;2023-03-20T06:34:25;21.30;;;16.88;;
39956;SDS011;48483;44.640;7.494;2023-03-20T06:36:54;20.55;;;16.77;;
39956;SDS011;48483;44.640;7.494;2023-03-20T06:39:22;24.98;;;18.70;;
39956;SDS011;48483;44.640;7.494;2023-03-20T06:41:50;19.30;;;16.05;;
39956;SDS011;48483;44.640;7.494;2023-03-20T06:44:18;18.77;;;15.35;;
39956;SDS011;48483;44.640;7.494;2023-03-20T06:47:03;22.17;;;17.65;;
39956;SDS011;48483;44.640;7.494;2023-03-20T06:49:30;20.23;;;18.15;;
39956;SDS011;48483;44.640;7.494;2023-03-20T06:51:58;21.15;;;17.80;;
39956;SDS011;48483;44.640;7.494;2023-03-20T06:54:26;21.85;;;16.70;;
39956;SDS011;48483;44.640;7.494;2023-03-20T06:56:54;22.88;;;18.02;;
39956;SDS011;48483;44.640;7.494;2023-03-20T06:59:21;20.25;;;17.98;;
39956;SDS011;48483;44.640;7.494;2023-03-20T07:01:50;21.45;;;17.45;;
39956;SDS011;48483;44.640;7.494;2023-03-20T07:04:17;22.20;;;19.13;;
39956;SDS011;48483;44.640;7.494;2023-03-20T07:06:48;23.05;;;17.75;;
39956;SDS011;48483;44.640;7.494;2023-03-20T07:09:17;24.50;;;17.25;;
39956;SDS011;48483;44.640;7.494;2023-03-20T07:11:44;22.70;;;17.13;;
39956;SDS011;48483;44.640;7.494;2023-03-20T07:14:12;19.80;;;17.38;;
39956;SDS011;48483;44.640;7.494;2023-03-20T07:17:06;23.08;;;17.00;;
39956;SDS011;48483;44.640;7.494;2023-03-20T07:19:34;19.50;;;16.90;;
39956;SDS011;48483;44.640;7.494;2023-03-20T07:22:02;19.13;;;16.35;;
39956;SDS011;48483;44.640;7.494;2023-03-20T07:24:38;20.67;;;16.08;;
39956;SDS011;48483;44.640;7.494;2023-03-20T07:27:05;20.70;;;16.55;;
39956;SDS011;48483;44.640;7.494;2023-03-20T07:29:33;22.08;;;17.50;;
39956;SDS011;48483;44.640;7.494;2023-03-20T07:32:04;19.33;;;16.40;;
39956;SDS011;48483;44.640;7.494;2023-03-20T07:34:37;19.88;;;16.25;;
39956;SDS011;48483;44.640;7.494;2023-03-20T07:37:03;17.48;;;15.57;;
39956;SDS011;48483;44.640;7.494;2023-03-20T07:39:32;19.55;;;15.45;;
39956;SDS011;48483;44.640;7.494;2023-03-20T07:42:22;26.42;;;15.63;;
39956;SDS011;48483;44.640;7.494;2023-03-20T07:44:56;22.45;;;17.02;;
39956;SDS011;48483;44.640;7.494;2023-03-20T07:47:23;20.80;;;15.60;;
39956;SDS011;48483;44.640;7.494;2023-03-20T07:49:50;20.67;;;16.75;;
39956;SDS011;48483;44.640;7.494;2023-03-20T07:52:17;21.00;;;16.42;;
39956;SDS011;48483;44.640;7.494;2023-03-20T07:54:43;19.55;;;17.13;;
39956;SDS011;48483;44.640;7.494;2023-03-20T07:57:10;25.92;;;16.80;;
39956;SDS011;48483;44.640;7.494;2023-03-20T07:59:38;18.45;;;16.52;;
39956;SDS011;48483;44.640;7.494;2023-03-20T08:02:05;21.52;;;16.50;;
39956;SDS011;48483;44.640;7.494;2023-03-20T08:04:32;19.20;;;16.88;;
39956;SDS011;48483;44.640;7.494;2023-03-20T08:06:59;21.40;;;17.40;;
39956;SDS011;48483;44.640;7.494;2023-03-20T08:09:26;23.30;;;19.15;;
39956;SDS011;48483;44.640;7.494;2023-03-20T08:11:52;26.38;;;19.23;;
39956;SDS011;48483;44.640;7.494;2023-03-20T08:14:19;23.13;;;18.73;;
39956;SDS011;48483;44.640;7.494;2023-03-20T08:16:47;27.40;;;19.48;;
39956;SDS011;48483;44.640;7.494;2023-03-20T08:19:14;21.85;;;18.73;;
39956;SDS011;48483;44.640;7.494;2023-03-20T08:21:41;23.55;;;19.83;;
39956;SDS011;48483;44.640;7.494;2023-03-20T08:24:07;22.92;;;20.00;;
39956;SDS011;48483;44.640;7.494;2023-03-20T08:26:34;28.25;;;20.10;;
39956;SDS011;48483;44.640;7.494;2023-03-20T08:29:01;23.27;;;20.08;;
39956;SDS011;48483;44.640;7.494;2023-03-20T08:31:28;24.63;;;20.38;;
39956;SDS011;48483;44.640;7.494;2023-03-20T08:33:58;22.83;;;20.35;;
39956;SDS011;48483;44.640;7.494;2023-03-20T08:36:24;28.70;;;20.95;;
39956;SDS011;48483;44.640;7.494;2023-03-20T08:38:51;24.80;;;22.25;;
39956;SDS011;48483;44.640;7.494;2023-03-20T08:41:18;24.38;;;21.70;;
39956;SDS011;48483;44.640;7.494;2023-03-20T08:43:45;25.70;;;22.05;;
39956;SDS011;48483;44.640;7.494;2023-03-20T08:46:12;28.38;;;21.92;;
39956;SDS011;48483;44.640;7.494;2023-03-20T08:48:39;25.40;;;21.15;;
39956;SDS011;48483;44.640;7.494;2023-03-20T08:51:07;26.60;;;21.25;;
39956;SDS011;48483;44.640;7.494;2023-03-20T08:53:34;22.88;;;20.00;;
39956;SDS011;48483;44.640;7.494;2023-03-20T08:56:01;21.75;;;19.15;;
39956;SDS011;48483;44.640;7.494;2023-03-20T08:58:28;21.17;;;18.95;;
39956;SDS011;48483;44.640;7.494;2023-03-20T09:00:55;23.40;;;19.67;;
39956;SDS011;48483;44.640;7.494;2023-03-20T09:03:22;23.38;;;18.77;;
39956;SDS011;48483;44.640;7.494;2023-03-20T09:05:49;20.98;;;18.70;;
39956;SDS011;48483;44.640;7.494;2023-03-20T09:08:18;21.75;;;16.92;;
39956;SDS011;48483;44.640;7.494;2023-03-20T09:10:45;18.67;;;16.63;;
39956;SDS011;48483;44.640;7.494;2023-03-20T09:13:13;20.95;;;17.77;;
39956;SDS011;48483;44.640;7.494;2023-03-20T09:15:40;18.50;;;16.60;;
39956;SDS011;48483;44.640;7.494;2023-03-20T09:18:07;21.88;;;17.55;;
39956;SDS011;48483;44.640;7.494;2023-03-20T09:20:34;19.38;;;17.40;;
39956;SDS011;48483;44.640;7.494;2023-03-20T09:23:01;21.38;;;19.08;;
39956;SDS011;48483;44.640;7.494;2023-03-20T09:25:29;21.42;;;16.50;;
39956;SDS011;48483;44.640;7.494;2023-03-20T09:27:56;20.10;;;18.00;;
39956;SDS011;48483;44.640;7.494;2023-03-20T09:30:23;18.42;;;15.90;;
39956;SDS011;48483;44.640;7.494;2023-03-20T09:32:50;19.95;;;17.48;;
39956;SDS011;48483;44.640;7.494;2023-03-20T09:35:17;20.02;;;17.63;;
39956;SDS011;48483;44.640;7.494;2023-03-20T09:37:44;20.00;;;17.60;;
39956;SDS011;48483;44.640;7.494;2023-03-20T09:40:17;21.02;;;17.73;;
39956;SDS011;48483;44.640;7.494;2023-03-20T09:42:51;21.42;;;18.10;;
39956;SDS011;48483;44.640;7.494;2023-03-20T09:45:26;21.45;;;18.08;;
39956;SDS011;48483;44.640;7.494;2023-03-20T09:48:07;28.77;;;18.30;;
39956;SDS011;48483;44.640;7.494;2023-03-20T09:50:41;21.67;;;19.35;;
39956;SDS011;48483;44.640;7.494;2023-03-20T09:53:19;18.98;;;16.98;;
39956;SDS011;48483;44.640;7.494;2023-03-20T09:55:52;21.10;;;18.08;;
39956;SDS011;48483;44.640;7.494;2023-03-20T09:58:22;20.00;;;17.83;;
39956;SDS011;48483;44.640;7.494;2023-03-20T10:00:54;19.33;;;16.95;;
39956;SDS011;48483;44.640;7.494;2023-03-20T10:03:24;20.13;;;18.02;;
39956;SDS011;48483;44.640;7.494;2023-03-20T10:05:55;18.42;;;16.55;;
39956;SDS011;48483;44.640;7.494;2023-03-20T10:10:55;21.85;;;16.20;;
39956;SDS011;48483;44.640;7.494;2023-03-20T10:13:37;20.75;;;18.52;;
39956;SDS011;48483;44.640;7.494;2023-03-20T10:16:16;19.73;;;16.10;;
39956;SDS011;48483;44.640;7.494;2023-03-20T10:18:50;21.50;;;19.27;;
39956;SDS011;48483;44.640;7.494;2023-03-20T10:21:26;22.90;;;18.73;;
39956;SDS011;48483;44.640;7.494;2023-03-20T10:24:01;20.88;;;18.73;;
39956;SDS011;48483;44.640;7.494;2023-03-20T10:26:29;21.65;;;17.42;;
39956;SDS011;48483;44.640;7.494;2023-03-20T10:29:00;20.42;;;18.27;;
39956;SDS011;48483;44.640;7.494;2023-03-20T10:31:32;20.63;;;18.17;;
39956;SDS011;48483;44.640;7.494;2023-03-20T10:34:12;23.52;;;19.10;;
39956;SDS011;48483;44.640;7.494;2023-03-20T10:37:00;19.50;;;17.58;;
39956;SDS011;48483;44.640;7.494;2023-03-20T10:39:44;23.85;;;18.40;;
39956;SDS011;48483;44.640;7.494;2023-03-20T10:42:20;21.98;;;18.67;;
39956;SDS011;48483;44.640;7.494;2023-03-20T10:44:52;20.33;;;18.25;;
39956;SDS011;48483;44.640;7.494;2023-03-20T10:47:23;22.35;;;18.23;;
39956;SDS011;48483;44.640;7.494;2023-03-20T10:49:54;24.98;;;18.35;;
39956;SDS011;48483;44.640;7.494;2023-03-20T10:52:24;19.60;;;17.60;;
39956;SDS011;48483;44.640;7.494;2023-03-20T10:54:53;19.50;;;17.23;;
39956;SDS011;48483;44.640;7.494;2023-03-20T10:57:23;23.83;;;19.33;;
39956;SDS011;48483;44.640;7.494;2023-03-20T10:59:53;22.20;;;17.75;;
39956;SDS011;48483;44.640;7.494;2023-03-20T11:02:22;19.83;;;17.27;;
39956;SDS011;48483;44.640;7.494;2023-03-20T11:04:52;19.35;;;17.42;;
39956;SDS011;48483;44.640;7.494;2023-03-20T11:07:21;21.08;;;17.70;;
39956;SDS011;48483;44.640;7.494;2023-03-20T11:12:33;22.05;;;17.30;;
39956;SDS011;48483;44.640;7.494;2023-03-20T11:15:03;19.35;;;16.25;;
39956;SDS011;48483;44.640;7.494;2023-03-20T11:17:41;21.77;;;16.05;;
39956;SDS011;48483;44.640;7.494;2023-03-20T11:20:09;23.13;;;16.30;;
39956;SDS011;48483;44.640;7.494;2023-03-20T11:22:38;19.33;;;17.35;;
39956;SDS011;48483;44.640;7.494;2023-03-20T11:25:19;23.90;;;16.88;;
39956;SDS011;48483;44.640;7.494;2023-03-20T11:27:48;18.60;;;16.60;;
39956;SDS011;48483;44.640;7.494;2023-03-20T11:30:17;17.70;;;15.77;;
39956;SDS011;48483;44.640;7.494;2023-03-20T11:32:45;17.63;;;15.40;;
39956;SDS011;48483;44.640;7.494;2023-03-20T11:35:17;19.13;;;15.95;;
39956;SDS011;48483;44.640;7.494;2023-03-20T11:37:47;16.92;;;15.18;;
39956;SDS011;48483;44.640;7.494;2023-03-20T11:40:17;19.70;;;15.38;;
39956;SDS011;48483;44.640;7.494;2023-03-20T11:42:51;17.73;;;15.93;;
39956;SDS011;48483;44.640;7.494;2023-03-20T11:45:20;17.90;;;16.10;;
39956;SDS011;48483;44.640;7.494;2023-03-20T11:47:48;20.88;;;15.88;;
39956;SDS011;48483;44.640;7.494;2023-03-20T11:50:24;16.95;;;15.10;;
39956;SDS011;48483;44.640;7.494;2023-03-20T11:52:54;20.02;;;15.57;;
39956;SDS011;48483;44.640;7.494;2023-03-20T11:55:22;17.42;;;15.55;;
39956;SDS011;48483;44.640;7.494;2023-03-20T11:57:54;17.70;;;15.73;;
39956;SDS011;48483;44.640;7.494;2023-03-20T12:00:24;16.60;;;15.00;;
39956;SDS011;48483;44.640;7.494;2023-03-20T12:02:53;15.35;;;12.93;;
39956;SDS011;48483;44.640;7.494;2023-03-20T12:05:28;16.10;;;14.43;;
39956;SDS011;48483;44.640;7.494;2023-03-20T12:07:58;17.67;;;13.93;;
39956;SDS011;48483;44.640;7.494;2023-03-20T12:10:28;16.50;;;14.57;;
39956;SDS011;48483;44.640;7.494;2023-03-20T12:13:00;16.40;;;14.75;;
39956;SDS011;48483;44.640;7.494;2023-03-20T12:15:33;15.93;;;14.27;;
39956;SDS011;48483;44.640;7.494;2023-03-20T12:18:03;14.55;;;13.05;;
39956;SDS011;48483;44.640;7.494;2023-03-20T12:20:34;16.80;;;14.38;;
39956;SDS011;48483;44.640;7.494;2023-03-20T12:23:10;16.65;;;14.88;;
39956;SDS011;48483;44.640;7.494;2023-03-20T12:25:40;16.30;;;14.63;;
39956;SDS011;48483;44.640;7.494;2023-03-20T12:28:13;17.05;;;15.23;;
39956;SDS011;48483;44.640;7.494;2023-03-20T12:30:53;16.42;;;14.38;;
39956;SDS011;48483;44.640;7.494;2023-03-20T12:33:42;15.35;;;13.85;;
39956;SDS011;48483;44.640;7.494;2023-03-20T12:36:15;13.35;;;11.95;;
39956;SDS011;48483;44.640;7.494;2023-03-20T12:38:43;17.45;;;13.10;;
39956;SDS011;48483;44.640;7.494;2023-03-20T12:41:11;16.27;;;13.10;;
39956;SDS011;48483;44.640;7.494;2023-03-20T12:43:52;17.73;;;12.70;;
39956;SDS011;48483;44.640;7.494;2023-03-20T12:46:49;13.68;;;11.35;;
39956;SDS011;48483;44.640;7.494;2023-03-20T12:49:29;12.40;;;9.95;;
39956;SDS011;48483;44.640;7.494;2023-03-20T12:52:07;14.13;;;10.90;;
39956;SDS011;48483;44.640;7.494;2023-03-20T12:54:45;13.75;;;10.60;;
39956;SDS011;48483;44.640;7.494;2023-03-20T12:57:29;12.05;;;10.75;;
39956;SDS011;48483;44.640;7.494;2023-03-20T13:00:09;13.60;;;9.93;;
39956;SDS011;48483;44.640;7.494;2023-03-20T13:02:53;12.00;;;10.63;;
39956;SDS011;48483;44.640;7.494;2023-03-20T13:05:36;13.35;;;10.88;;
39956;SDS011;48483;44.640;7.494;2023-03-20T13:08:13;13.32;;;11.98;;
39956;SDS011;48483;44.640;7.494;2023-03-20T13:10:59;16.75;;;12.95;;
39956;SDS011;48483;44.640;7.494;2023-03-20T13:13:32;14.93;;;13.43;;
39956;SDS011;48483;44.640;7.494;2023-03-20T13:16:10;14.70;;;13.10;;
39956;SDS011;48483;44.640;7.494;2023-03-20T13:18:47;13.50;;;12.13;;
39956;SDS011;48483;44.640;7.494;2023-03-20T13:21:25;13.88;;;12.00;;
39956;SDS011;48483;44.640;7.494;2023-03-20T13:24:00;12.48;;;11.18;;
39956;SDS011;48483;44.640;7.494;2023-03-20T13:26:35;11.38;;;10.27;;
39956;SDS011;48483;44.640;7.494;2023-03-20T13:29:07;13.32;;;11.40;;
39956;SDS011;48483;44.640;7.494;2023-03-20T13:31:47;15.00;;;11.07;;
39956;SDS011;48483;44.640;7.494;2023-03-20T13:34:32;11.30;;;9.70;;
39956;SDS011;48483;44.640;7.494;2023-03-20T13:37:12;10.30;;;8.98;;
39956;SDS011;48483;44.640;7.494;2023-03-20T13:39:45;10.30;;;8.95;;
39956;SDS011;48483;44.640;7.494;2023-03-20T13:42:26;12.95;;;10.40;;
39956;SDS011;48483;44.640;7.494;2023-03-20T13:45:00;10.13;;;9.00;;
39956;SDS011;48483;44.640;7.494;2023-03-20T13:47:32;9.70;;;8.50;;
39956;SDS011;48483;44.640;7.494;2023-03-20T13:50:04;12.30;;;9.88;;
39956;SDS011;48483;44.640;7.494;2023-03-20T13:52:52;12.43;;;9.20;;
39956;SDS011;48483;44.640;7.494;2023-03-20T13:55:25;11.27;;;8.90;;
39956;SDS011;48483;44.640;7.494;2023-03-20T13:58:01;12.35;;;9.52;;
39956;SDS011;48483;44.640;7.494;2023-03-20T14:00:36;13.10;;;10.13;;
39956;SDS011;48483;44.640;7.494;2023-03-20T14:03:18;11.15;;;8.75;;
39956;SDS011;48483;44.640;7.494;2023-03-20T14:05:51;10.27;;;9.00;;
39956;SDS011;48483;44.640;7.494;2023-03-20T14:08:22;11.85;;;9.57;;
39956;SDS011;48483;44.640;7.494;2023-03-20T14:11:04;10.50;;;8.38;;
39956;SDS011;48483;44.640;7.494;2023-03-20T14:13:41;10.27;;;9.20;;
39956;SDS011;48483;44.640;7.494;2023-03-20T14:16:11;12.63;;;8.40;;
39956;SDS011;48483;44.640;7.494;2023-03-20T14:18:41;9.98;;;8.45;;
39956;SDS011;48483;44.640;7.494;2023-03-20T14:21:12;10.88;;;7.28;;
39956;SDS011;48483;44.640;7.494;2023-03-20T14:26:09;8.13;;;6.90;;
39956;SDS011;48483;44.640;7.494;2023-03-20T14:28:51;11.13;;;7.68;;
39956;SDS011;48483;44.640;7.494;2023-03-20T14:31:21;7.72;;;6.93;;
39956;SDS011;48483;44.640;7.494;2023-03-20T14:33:53;10.40;;;7.93;;
39956;SDS011;48483;44.640;7.494;2023-03-20T14:36:29;9.30;;;7.40;;
39956;SDS011;48483;44.640;7.494;2023-03-20T14:39:14;11.90;;;6.82;;
39956;SDS011;48483;44.640;7.494;2023-03-20T14:44:26;12.23;;;7.57;;
39956;SDS011;48483;44.640;7.494;2023-03-20T14:47:01;9.90;;;7.82;;
39956;SDS011;48483;44.640;7.494;2023-03-20T14:49:46;9.10;;;7.65;;
39956;SDS011;48483;44.640;7.494;2023-03-20T14:52:27;9.60;;;7.63;;
39956;SDS011;48483;44.640;7.494;2023-03-20T14:55:27;8.20;;;7.40;;
39956;SDS011;48483;44.640;7.494;2023-03-20T14:58:02;9.77;;;8.05;;
39956;SDS011;48483;44.640;7.494;2023-03-20T15:00:35;10.63;;;8.85;;
39956;SDS011;48483;44.640;7.494;2023-03-20T15:03:13;12.88;;;9.07;;
39956;SDS011;48483;44.640;7.494;2023-03-20T15:05:41;12.57;;;8.70;;
39956;SDS011;48483;44.640;7.494;2023-03-20T15:08:13;9.15;;;8.25;;
39956;SDS011;48483;44.640;7.494;2023-03-20T15:10:48;10.68;;;8.02;;
39956;SDS011;48483;44.640;7.494;2023-03-20T15:15:52;7.13;;;5.93;;
39956;SDS011;48483;44.640;7.494;2023-03-20T15:18:21;7.68;;;6.30;;
39956;SDS011;48483;44.640;7.494;2023-03-20T15:20:48;9.63;;;7.32;;